Time;durP1;ratioP1;P1;durP2;ratioP2;P2;SDS_P1;SDS_P2;PMS_P1;PMS_P2;Temp;Humidity;BMP_temperature;BMP_pressure;BME280_temperature;BME280_humidity;BME280_pressure;Samples;Min_cycle;Max_cycle;Signal;HPM_P1;HPM_P2
2022/01/27 00:01:07;;;;;;;25.48;12.30;;;;;;;0.94;100.00;101374.06;5588760;31;34091;-66
2022/01/27 00:04:18;;;;;;;25.58;12.68;;;;;;;0.86;100.00;101374.47;5588767;31;34275;-67
2022/01/27 00:07:21;;;;;;;25.50;11.93;;;;;;;0.91;100.00;101367.25;5588739;31;34598;-67
2022/01/27 00:13:33;;;;;;;26.77;12.77;;;;;;;0.94;100.00;101379.28;5588602;31;34321;-66
2022/01/27 00:16:40;;;;;;;26.10;12.27;;;;;;;0.91;100.00;101376.84;5588668;31;33932;-66
2022/01/27 00:19:43;;;;;;;25.67;12.40;;;;;;;0.97;100.00;101373.91;5588508;31;34732;-67
2022/01/27 00:22:46;;;;;;;29.10;13.10;;;;;;;1.00;100.00;101381.56;5588420;31;34122;-67
2022/01/27 00:25:48;;;;;;;25.77;12.63;;;;;;;0.91;100.00;101385.53;5588773;31;33910;-67
2022/01/27 00:28:52;;;;;;;26.08;12.65;;;;;;;0.93;100.00;101375.81;5574211;31;34853;-68
2022/01/27 00:31:54;;;;;;;21.73;11.25;;;;;;;0.89;100.00;101374.31;5588659;31;33893;-66
2022/01/27 00:34:58;;;;;;;30.00;13.23;;;;;;;0.98;100.00;101383.41;5588200;31;34694;-66
2022/01/27 00:38:01;;;;;;;28.85;13.20;;;;;;;0.94;100.00;101369.69;5588223;31;34238;-66
2022/01/27 00:41:05;;;;;;;29.70;14.00;;;;;;;0.92;100.00;101365.47;5588145;31;34336;-66
2022/01/27 00:44:08;;;;;;;28.35;12.50;;;;;;;0.90;100.00;101368.16;5588136;31;34544;-67
2022/01/27 00:47:11;;;;;;;34.28;14.70;;;;;;;0.90;100.00;101365.56;5588060;31;34443;-67
2022/01/27 00:50:17;;;;;;;28.08;12.65;;;;;;;0.81;100.00;101363.44;5588460;31;34673;-67
2022/01/27 00:56:53;;;;;;;29.83;13.60;;;;;;;0.85;100.00;101372.78;5590756;31;34320;-66
2022/01/27 00:59:58;;;;;;;29.50;13.50;;;;;;;0.76;100.00;101379.34;5590847;31;32698;-67
2022/01/27 01:03:06;;;;;;;28.83;14.20;;;;;;;0.80;100.00;101372.19;5576803;31;34742;-66
2022/01/27 01:06:32;;;;;;;28.70;13.38;;;;;;;0.74;100.00;101367.28;5590761;31;34271;-66
2022/01/27 01:16:17;;;;;;;32.10;14.45;;;;;;;0.76;100.00;101357.59;5590578;31;34506;-66
2022/01/27 01:38:50;;;;;;;26.98;12.35;;;;;;;0.66;100.00;101351.19;5590339;31;34523;-66
2022/01/27 01:41:54;;;;;;;32.17;13.43;;;;;;;0.73;100.00;101347.31;5590222;31;35238;-66
2022/01/27 01:45:14;;;;;;;27.83;13.20;;;;;;;0.64;100.00;101338.19;5590403;31;34275;-66
2022/01/27 01:48:17;;;;;;;27.77;13.40;;;;;;;0.66;100.00;101341.59;5590325;31;33957;-66
2022/01/27 01:51:28;;;;;;;27.62;12.65;;;;;;;0.69;100.00;101343.19;5590278;31;34692;-66
2022/01/27 01:54:31;;;;;;;25.83;12.43;;;;;;;0.68;100.00;101342.34;5590235;31;34674;-66
2022/01/27 01:57:34;;;;;;;25.62;12.55;;;;;;;0.72;100.00;101348.25;5590561;31;34656;-66
2022/01/27 02:00:37;;;;;;;26.85;12.55;;;;;;;0.70;100.00;101348.31;5576478;31;34420;-67
2022/01/27 02:03:40;;;;;;;27.75;12.77;;;;;;;0.58;100.00;101345.53;5589332;31;34516;-66
2022/01/27 02:06:51;;;;;;;30.55;14.10;;;;;;;0.58;100.00;101348.16;5590432;31;34447;-66
2022/01/27 02:19:56;;;;;;;26.08;12.13;;;;;;;0.73;100.00;101331.63;5589964;31;34027;-66
2022/01/27 02:23:00;;;;;;;27.60;12.80;;;;;;;0.62;100.00;101323.56;5590037;31;34002;-66
2022/01/27 02:26:03;;;;;;;25.50;12.18;;;;;;;0.61;100.00;101317.47;5576194;31;34249;-69
2022/01/27 02:29:06;;;;;;;27.85;13.10;;;;;;;0.61;100.00;101319.25;5576166;31;33842;-66
2022/01/27 02:32:09;;;;;;;25.17;12.07;;;;;;;0.64;99.60;101319.06;5589973;31;34617;-66
2022/01/27 02:35:12;;;;;;;28.17;12.98;;;;;;;0.64;100.00;101311.25;5590206;31;34587;-66
2022/01/27 02:38:14;;;;;;;27.40;12.98;;;;;;;0.58;100.00;101307.19;5589883;31;35282;-66
2022/01/27 02:41:22;;;;;;;25.45;12.55;;;;;;;0.61;100.00;101293.12;5590165;31;34351;-66
2022/01/27 02:44:55;;;;;;;23.17;11.00;;;;;;;0.76;98.82;101295.78;5590172;31;34198;-66
2022/01/27 02:47:58;;;;;;;22.45;11.35;;;;;;;0.75;97.73;101288.84;5589791;31;34014;-66
2022/01/27 02:51:01;;;;;;;23.67;11.85;;;;;;;0.93;95.55;101297.44;5589800;31;34422;-66
2022/01/27 02:54:04;;;;;;;24.58;11.52;;;;;;;0.92;95.85;101294.94;5589793;31;34657;-66
2022/01/27 02:57:07;;;;;;;30.10;12.50;;;;;;;0.92;95.90;101300.16;5589730;31;34644;-67
2022/01/27 03:00:10;;;;;;;26.25;11.05;;;;;;;0.97;95.28;101285.91;5589847;31;33996;-66
2022/01/27 03:03:13;;;;;;;25.17;12.68;;;;;;;0.93;95.22;101287.00;5589576;31;34573;-66
2022/01/27 03:06:17;;;;;;;22.33;11.82;;;;;;;1.02;94.60;101289.09;5589569;31;34217;-66
2022/01/27 03:09:19;;;;;;;25.35;11.25;;;;;;;0.97;94.69;101296.34;5589675;31;34529;-66
2022/01/27 03:12:25;;;;;;;23.08;11.88;;;;;;;0.96;94.89;101292.09;5576336;31;34281;-66
2022/01/27 03:15:28;;;;;;;25.17;12.00;;;;;;;0.95;94.98;101310.44;5575855;31;33981;-66
2022/01/27 03:18:31;;;;;;;30.33;11.35;;;;;;;0.98;94.52;101303.28;5589581;31;34022;-66
2022/01/27 03:21:35;;;;;;;24.98;12.18;;;;;;;1.00;94.15;101303.19;5589363;31;34013;-66
2022/01/27 03:24:38;;;;;;;26.75;12.32;;;;;;;0.99;93.89;101306.72;5589481;31;34593;-66
2022/01/27 03:27:46;;;;;;;23.15;12.20;;;;;;;0.96;93.83;101299.06;5589481;31;35102;-67
2022/01/27 03:30:49;;;;;;;26.00;12.75;;;;;;;0.97;94.10;101309.41;5589324;31;34713;-66
2022/01/27 03:33:51;;;;;;;26.35;13.27;;;;;;;1.01;93.47;101303.12;5589325;31;33922;-66
2022/01/27 03:36:54;;;;;;;32.38;12.40;;;;;;;0.96;93.73;101305.16;5589460;31;34114;-66
2022/01/27 03:39:57;;;;;;;24.40;12.65;;;;;;;0.96;93.64;101296.47;5589611;31;33982;-66
2022/01/27 03:43:05;;;;;;;24.90;11.77;;;;;;;0.94;93.53;101300.91;5575362;31;34065;-67
2022/01/27 03:46:08;;;;;;;23.55;12.75;;;;;;;0.97;93.38;101280.69;5589304;31;33990;-66
2022/01/27 03:49:12;;;;;;;25.70;12.45;;;;;;;0.87;93.97;101282.94;5589436;31;34006;-66
2022/01/27 03:52:15;;;;;;;28.20;13.38;;;;;;;0.94;93.51;101278.25;5589066;31;33930;-67
2022/01/27 03:55:18;;;;;;;27.87;12.98;;;;;;;0.88;93.94;101281.19;5589017;31;34309;-66
2022/01/27 03:58:21;;;;;;;23.75;12.63;;;;;;;0.89;93.79;101272.44;5589015;31;34432;-67
2022/01/27 04:01:24;;;;;;;29.95;13.40;;;;;;;0.85;93.74;101255.25;5588912;31;34466;-66
2022/01/27 04:04:29;;;;;;;27.05;11.82;;;;;;;0.83;93.99;101270.16;5588922;31;34030;-66
2022/01/27 04:07:32;;;;;;;28.12;12.93;;;;;;;0.90;93.64;101276.72;5588666;31;34492;-66
2022/01/27 04:10:36;;;;;;;23.40;13.07;;;;;;;0.87;93.69;101287.38;5589015;31;35425;-67
2022/01/27 04:13:38;;;;;;;25.62;12.48;;;;;;;0.89;93.38;101290.72;5588610;31;33988;-67
2022/01/27 04:16:41;;;;;;;25.45;12.63;;;;;;;0.88;93.19;101287.25;5588709;31;33906;-66
2022/01/27 04:19:44;;;;;;;22.45;11.15;;;;;;;0.92;93.17;101292.34;5574797;31;33990;-66
2022/01/27 04:22:47;;;;;;;29.35;12.50;;;;;;;0.90;93.34;101289.78;5588536;31;33849;-66
2022/01/27 04:25:50;;;;;;;25.35;12.57;;;;;;;0.91;93.39;101288.03;5575346;31;34573;-67
2022/01/27 04:28:54;;;;;;;25.83;13.00;;;;;;;0.87;93.67;101298.63;5591225;31;34251;-67
2022/01/27 04:31:56;;;;;;;22.85;11.55;;;;;;;0.87;93.59;101279.53;5590974;31;33935;-67
2022/01/27 04:35:04;;;;;;;25.83;12.30;;;;;;;0.94;93.00;101285.22;5590961;31;34059;-66
2022/01/27 04:41:22;;;;;;;26.58;12.75;;;;;;;0.82;93.85;101282.34;5590864;31;33933;-66
2022/01/27 04:44:33;;;;;;;22.05;11.48;;;;;;;0.85;93.70;101281.37;5591274;31;34002;-67
2022/01/27 04:47:41;;;;;;;23.85;12.48;;;;;;;0.91;92.87;101285.41;5590858;31;33975;-66
2022/01/27 04:50:44;;;;;;;25.05;11.20;;;;;;;0.83;93.36;101276.22;5590744;31;34280;-66
2022/01/27 04:57:09;;;;;;;25.85;12.75;;;;;;;0.89;91.89;101282.88;5590887;31;35226;-66
2022/01/27 05:00:15;;;;;;;24.80;12.85;;;;;;;0.85;92.18;101279.59;5591009;31;34007;-66
2022/01/27 05:03:32;;;;;;;23.42;12.10;;;;;;;0.82;92.84;101277.13;5590580;31;34756;-66
2022/01/27 05:06:35;;;;;;;23.08;12.18;;;;;;;1.00;91.20;101271.84;5576970;31;34021;-66
2022/01/27 05:09:46;;;;;;;21.73;11.63;;;;;;;0.99;91.03;101276.22;5590517;31;35484;-66
2022/01/27 05:12:52;;;;;;;26.15;10.88;;;;;;;1.01;90.50;101279.59;5590703;31;34596;-66
2022/01/27 05:15:54;;;;;;;21.15;11.70;;;;;;;0.94;90.71;101277.41;5590573;31;34148;-66
2022/01/27 05:19:04;;;;;;;22.98;11.30;;;;;;;0.98;90.47;101274.53;5590626;31;34050;-66
2022/01/27 05:22:06;;;;;;;25.37;11.50;;;;;;;0.98;90.20;101281.53;5590874;31;34358;-66
2022/01/27 05:25:09;;;;;;;23.20;12.27;;;;;;;1.04;89.63;101276.81;5576826;31;33943;-66
2022/01/27 05:28:12;;;;;;;24.83;12.23;;;;;;;1.04;89.88;101283.81;5590445;31;34580;-66
2022/01/27 05:31:15;;;;;;;21.92;11.55;;;;;;;1.16;89.15;101277.91;5590461;31;33978;-67
2022/01/27 05:34:18;;;;;;;22.00;11.40;;;;;;;1.10;89.46;101273.03;5590537;31;34005;-66
2022/01/27 05:37:21;;;;;;;24.70;11.12;;;;;;;1.06;90.09;101267.13;5575708;31;34371;-66
2022/01/27 05:40:24;;;;;;;19.92;9.52;;;;;;;1.01;90.18;101256.09;5589898;31;34871;-66
2022/01/27 05:43:27;;;;;;;25.80;11.65;;;;;;;0.97;90.69;101240.69;5590108;31;34079;-67
2022/01/27 05:46:29;;;;;;;24.98;12.27;;;;;;;0.98;90.33;101237.09;5590305;31;35272;-66
2022/01/27 05:49:32;;;;;;;27.48;12.93;;;;;;;0.96;90.82;101252.03;5576451;31;33932;-66
2022/01/27 05:52:35;;;;;;;23.35;12.20;;;;;;;0.95;90.96;101239.91;5590064;31;34047;-67
2022/01/27 05:55:38;;;;;;;24.90;12.70;;;;;;;1.00;90.06;101248.34;5590136;31;33851;-66
2022/01/27 05:58:41;;;;;;;27.55;13.07;;;;;;;0.94;90.42;101239.06;5589950;31;34111;-66
2022/01/27 06:01:46;;;;;;;24.35;12.37;;;;;;;0.99;89.70;101244.88;5576194;31;33830;-66
2022/01/27 06:04:49;;;;;;;24.70;12.43;;;;;;;1.01;89.68;101243.03;5576290;31;33907;-66
2022/01/27 06:07:53;;;;;;;25.98;14.02;;;;;;;0.99;89.75;101231.81;5577058;31;34087;-66
2022/01/27 06:10:57;;;;;;;22.35;11.90;;;;;;;1.02;89.81;101238.62;5591167;31;34393;-66
2022/01/27 06:14:00;;;;;;;27.25;14.43;;;;;;;1.07;89.55;101224.38;5590042;31;34642;-66
2022/01/27 06:17:03;;;;;;;28.77;14.82;;;;;;;1.02;89.94;101233.37;5589686;31;34712;-66
2022/01/27 06:20:06;;;;;;;25.37;12.30;;;;;;;1.07;89.73;101232.22;5589750;31;34296;-67
2022/01/27 06:23:11;;;;;;;30.20;13.32;;;;;;;1.05;90.17;101241.06;5576183;31;34072;-67
2022/01/27 06:26:14;;;;;;;26.00;13.38;;;;;;;1.02;90.26;101247.31;5576017;31;34556;-67
2022/01/27 06:29:17;;;;;;;21.02;9.38;;;;;;;1.07;89.84;101245.28;5589737;31;34628;-66
2022/01/27 06:32:20;;;;;;;22.58;11.38;;;;;;;1.13;89.75;101241.47;5575998;31;35138;-66
2022/01/27 06:35:23;;;;;;;25.77;12.82;;;;;;;1.10;90.05;101265.19;5589293;31;34424;-66
2022/01/27 06:38:26;;;;;;;21.98;12.43;;;;;;;1.17;89.61;101258.66;5589317;31;35274;-66
2022/01/27 06:41:29;;;;;;;29.58;13.50;;;;;;;1.12;89.95;101269.38;5575256;31;34198;-66
2022/01/27 06:44:32;;;;;;;27.20;12.20;;;;;;;1.14;89.77;101257.06;5575777;31;34049;-67
2022/01/27 06:47:34;;;;;;;26.48;12.90;;;;;;;1.17;89.84;101277.81;5589657;31;33887;-67
2022/01/27 06:50:38;;;;;;;25.52;12.70;;;;;;;1.24;89.66;101270.47;5588873;31;34362;-66
2022/01/27 06:53:42;;;;;;;27.62;13.75;;;;;;;1.25;89.89;101280.00;5575819;31;34409;-66
2022/01/27 06:56:45;;;;;;;26.90;13.62;;;;;;;1.17;90.14;101297.87;5589103;31;34307;-66
2022/01/27 06:59:49;;;;;;;23.25;12.50;;;;;;;1.27;89.76;101286.81;5589461;31;34489;-66
2022/01/27 07:02:51;;;;;;;26.73;13.70;;;;;;;1.28;89.96;101283.28;5589715;31;34618;-66
2022/01/27 07:05:54;;;;;;;28.27;12.70;;;;;;;1.32;89.76;101294.41;5589371;31;34531;-67
2022/01/27 07:08:57;;;;;;;25.45;12.95;;;;;;;1.32;89.44;101281.31;5589730;31;34411;-67
2022/01/27 07:11:59;;;;;;;31.73;12.70;;;;;;;1.31;89.64;101269.19;5588976;31;34843;-66
2022/01/27 07:15:02;;;;;;;28.73;13.82;;;;;;;1.25;90.25;101272.16;5589217;31;34681;-66
2022/01/27 07:18:09;;;;;;;26.90;12.18;;;;;;;1.29;89.75;101276.28;5575665;31;34684;-67
2022/01/27 07:21:12;;;;;;;26.80;13.65;;;;;;;1.34;89.77;101278.63;5588970;31;34409;-67
2022/01/27 07:24:15;;;;;;;27.92;13.73;;;;;;;1.24;90.01;101280.94;5588676;31;35275;-67
2022/01/27 07:27:17;;;;;;;25.52;13.00;;;;;;;1.34;89.90;101276.88;5588369;31;33901;-67
2022/01/27 07:30:20;;;;;;;28.38;13.45;;;;;;;1.47;89.33;101275.22;5588649;31;34455;-66
2022/01/27 07:33:23;;;;;;;25.58;12.75;;;;;;;1.42;89.74;101268.56;5589172;31;34159;-67
2022/01/27 07:36:28;;;;;;;26.50;12.90;;;;;;;1.31;89.94;101270.03;5589057;31;34550;-67
2022/01/27 07:39:30;;;;;;;24.10;12.25;;;;;;;1.30;90.43;101257.06;5589603;31;33884;-66
2022/01/27 07:42:33;;;;;;;25.85;12.85;;;;;;;1.30;90.53;101255.28;5588922;31;35391;-67
2022/01/27 07:45:36;;;;;;;30.23;14.13;;;;;;;1.21;91.18;101253.19;5588831;31;34778;-67
2022/01/27 07:48:42;;;;;;;25.33;12.37;;;;;;;1.27;91.16;101247.59;5588956;31;34440;-66
2022/01/27 07:51:44;;;;;;;26.05;12.95;;;;;;;1.38;90.22;101254.84;5589095;31;33918;-67
2022/01/27 07:54:47;;;;;;;26.92;13.00;;;;;;;1.31;90.23;101256.94;5588939;31;34237;-67
2022/01/27 07:57:51;;;;;;;25.35;12.43;;;;;;;1.37;90.15;101260.16;5589063;31;34548;-67
2022/01/27 08:00:54;;;;;;;26.90;13.10;;;;;;;1.37;90.26;101261.00;5587969;31;34024;-67
2022/01/27 08:03:57;;;;;;;24.60;12.77;;;;;;;1.51;89.21;101263.66;5575059;31;34441;-67
2022/01/27 08:07:02;;;;;;;23.45;10.48;;;;;;;1.54;89.04;101257.44;5588747;31;34011;-67
2022/01/27 08:10:06;;;;;;;26.12;12.43;;;;;;;1.42;89.18;101260.72;5588599;31;34032;-67
2022/01/27 08:13:09;;;;;;;26.45;12.90;;;;;;;1.50;88.83;101255.91;5574534;31;34437;-67
2022/01/27 08:16:12;;;;;;;25.15;12.35;;;;;;;1.67;88.34;101247.94;5588660;31;33870;-67
2022/01/27 08:19:22;;;;;;;23.50;11.55;;;;;;;1.67;88.42;101248.78;5588414;31;34010;-67
2022/01/27 08:22:25;;;;;;;25.80;12.82;;;;;;;1.70;88.00;101245.12;5588515;31;34638;-67
2022/01/27 08:25:27;;;;;;;25.30;12.68;;;;;;;1.75;87.90;101250.91;5588427;31;34610;-67
2022/01/27 08:28:38;;;;;;;25.95;13.15;;;;;;;1.80;87.80;101238.41;5588548;31;33931;-67
2022/01/27 08:32:02;;;;;;;25.37;12.15;;;;;;;1.85;87.00;101238.13;5588296;31;33847;-67
2022/01/27 08:35:06;;;;;;;23.15;11.73;;;;;;;1.84;87.56;101253.00;5588195;31;33946;-67
2022/01/27 08:38:09;;;;;;;26.73;12.80;;;;;;;1.82;87.10;101254.03;5588200;31;34704;-67
2022/01/27 08:41:12;;;;;;;26.58;12.75;;;;;;;1.83;87.00;101258.34;5588524;31;33870;-67
2022/01/27 08:44:15;;;;;;;25.75;12.30;;;;;;;1.88;86.76;101251.91;5587632;31;35469;-67
2022/01/27 08:47:18;;;;;;;27.05;11.70;;;;;;;1.89;86.64;101253.56;5588109;31;34191;-67
2022/01/27 08:50:22;;;;;;;25.27;11.95;;;;;;;2.06;85.55;101247.34;5588182;31;35353;-67
2022/01/27 08:53:30;;;;;;;28.90;13.07;;;;;;;2.20;84.33;101249.97;5574292;31;34511;-67
2022/01/27 08:56:33;;;;;;;27.20;12.02;;;;;;;2.34;83.72;101236.03;5587750;31;34005;-68
2022/01/27 08:59:37;;;;;;;26.02;11.25;;;;;;;2.41;83.39;101229.47;5587495;31;34106;-67
2022/01/27 09:02:40;;;;;;;25.77;11.93;;;;;;;2.70;82.17;101225.88;5587604;31;34632;-67
2022/01/27 09:05:44;;;;;;;24.67;11.20;;;;;;;2.96;80.40;101225.03;5587736;31;34281;-67
2022/01/27 09:08:48;;;;;;;25.70;11.45;;;;;;;3.27;79.16;101229.16;5587760;31;34182;-67
2022/01/27 09:11:51;;;;;;;24.95;11.75;;;;;;;3.14;79.12;101232.69;5588387;31;33919;-68
2022/01/27 09:14:54;;;;;;;21.52;11.43;;;;;;;2.80;80.15;101249.72;5590432;31;35508;-67
2022/01/27 09:17:59;;;;;;;23.87;10.90;;;;;;;2.76;80.64;101243.00;5590572;31;34030;-67
2022/01/27 09:21:07;;;;;;;26.23;11.65;;;;;;;2.72;80.46;101242.31;5590254;31;33881;-67
2022/01/27 09:24:15;;;;;;;24.98;11.82;;;;;;;2.72;80.78;101233.63;5576610;31;34535;-67
2022/01/27 09:27:19;;;;;;;21.48;10.13;;;;;;;2.70;80.94;101238.97;5576144;31;33970;-67
2022/01/27 09:30:22;;;;;;;24.17;11.23;;;;;;;2.70;80.50;101238.97;5576362;31;33991;-67
2022/01/27 09:33:25;;;;;;;33.88;11.45;;;;;;;2.89;80.03;101254.37;5576572;31;34061;-67
2022/01/27 09:36:28;;;;;;;24.35;11.50;;;;;;;2.87;79.77;101253.63;5590285;31;35273;-67
2022/01/27 09:39:32;;;;;;;22.87;11.32;;;;;;;2.83;79.96;101244.28;5590443;31;33862;-67
2022/01/27 09:42:37;;;;;;;25.45;12.13;;;;;;;2.50;81.30;101244.63;5590015;31;34408;-66
2022/01/27 09:45:40;;;;;;;23.40;12.05;;;;;;;2.72;80.50;101246.72;5590380;31;34214;-67
2022/01/27 09:48:47;;;;;;;31.33;12.98;;;;;;;2.87;79.81;101238.75;5590292;31;33986;-67
2022/01/27 09:51:49;;;;;;;27.50;12.05;;;;;;;2.74;80.62;101242.25;5576302;31;33876;-66
2022/01/27 09:54:53;;;;;;;29.60;12.00;;;;;;;2.86;80.03;101239.69;5590216;31;34523;-67
2022/01/27 09:57:58;;;;;;;24.87;11.38;;;;;;;3.18;78.20;101242.88;5589968;31;34687;-67
2022/01/27 10:01:01;;;;;;;27.23;11.10;;;;;;;3.20;77.99;101242.75;5589822;31;33975;-67
2022/01/27 10:04:06;;;;;;;22.85;10.75;;;;;;;3.34;77.18;101246.16;5590004;31;33951;-67
2022/01/27 10:07:10;;;;;;;29.48;10.07;;;;;;;3.08;77.95;101240.94;5589739;31;33965;-67
2022/01/27 10:10:16;;;;;;;22.58;9.90;;;;;;;3.09;78.14;101229.50;5589894;31;34736;-67
2022/01/27 10:13:31;;;;;;;21.33;10.23;;;;;;;3.05;78.34;101227.06;5589716;31;34608;-66
2022/01/27 10:16:36;;;;;;;24.87;10.27;;;;;;;3.33;76.86;101228.75;5589590;31;34157;-67
2022/01/27 10:19:39;;;;;;;19.55;10.57;;;;;;;3.16;77.40;101213.28;5589464;31;34666;-67
2022/01/27 10:22:42;;;;;;;22.62;9.55;;;;;;;3.28;76.88;101215.09;5589122;31;34087;-67
2022/01/27 10:25:52;;;;;;;23.98;10.32;;;;;;;2.94;77.25;101195.50;5589104;31;35132;-67
2022/01/27 10:29:07;;;;;;;22.58;10.10;;;;;;;2.70;78.41;101197.06;5585622;31;116913;-67
2022/01/27 10:32:10;;;;;;;21.15;10.55;;;;;;;2.69;78.97;101181.44;5589512;31;35179;-66
2022/01/27 10:35:16;;;;;;;25.60;10.80;;;;;;;2.84;78.31;101176.06;5589601;31;34528;-67
2022/01/27 10:38:19;;;;;;;22.67;10.85;;;;;;;3.10;77.42;101176.16;5589598;31;34079;-67
2022/01/27 10:41:24;;;;;;;22.33;10.23;;;;;;;3.41;76.17;101175.78;5591244;31;34230;-66
2022/01/27 10:44:37;;;;;;;19.70;9.80;;;;;;;3.38;75.40;101174.22;5592271;31;34650;-66
2022/01/27 10:47:45;;;;;;;24.63;10.18;;;;;;;3.54;74.89;101168.75;5582436;31;34280;-64
2022/01/27 10:50:59;;;;;;;18.80;9.05;;;;;;;3.44;74.62;101158.06;5589956;31;34278;-66
2022/01/27 10:54:05;;;;;;;19.30;9.63;;;;;;;3.35;75.34;101149.97;5589673;31;34074;-66
2022/01/27 10:57:13;;;;;;;20.90;10.48;;;;;;;3.39;74.91;101140.94;5575806;31;34028;-67
2022/01/27 11:00:18;;;;;;;21.20;10.55;;;;;;;3.48;74.28;101135.94;5589370;31;33929;-67
2022/01/27 11:03:21;;;;;;;25.90;10.13;;;;;;;3.58;74.28;101132.69;5589197;31;35151;-66
2022/01/27 11:06:26;;;;;;;20.55;10.70;;;;;;;3.55;74.39;101140.75;5589843;31;34208;-67
2022/01/27 11:09:34;;;;;;;23.23;11.15;;;;;;;3.75;74.12;101129.72;5589458;31;34195;-66
2022/01/27 11:12:37;;;;;;;23.33;10.98;;;;;;;4.01;72.38;101134.03;5589505;31;34026;-67
2022/01/27 11:15:41;;;;;;;22.65;11.02;;;;;;;4.05;71.98;101124.13;5589273;31;33922;-66
2022/01/27 11:18:46;;;;;;;23.30;10.10;;;;;;;3.94;72.57;101127.50;5575592;31;34872;-67
2022/01/27 11:28:27;;;;;;;21.62;10.48;;;;;;;3.77;73.12;101105.06;5588873;31;34319;-66
2022/01/27 11:31:54;;;;;;;26.40;11.23;;;;;;;3.45;74.34;101104.66;5589048;31;34136;-67
2022/01/27 11:34:56;;;;;;;27.80;11.77;;;;;;;3.77;73.33;101094.59;5587989;31;33948;-67
2022/01/27 11:38:04;;;;;;;26.33;11.57;;;;;;;3.92;73.05;101090.03;5588820;31;33933;-67
2022/01/27 11:41:36;;;;;;;23.30;10.27;;;;;;;4.18;71.35;101089.03;5588949;31;34796;-66
2022/01/27 11:44:43;;;;;;;24.50;12.23;;;;;;;4.25;70.90;101079.75;5574918;31;34536;-67
2022/01/27 11:48:02;;;;;;;23.20;11.30;;;;;;;4.45;70.41;101069.59;5588712;31;34566;-67
2022/01/27 11:51:07;;;;;;;21.05;10.45;;;;;;;4.61;70.21;101073.59;5575001;31;34852;-67
2022/01/27 11:54:25;;;;;;;23.73;11.52;;;;;;;4.83;68.44;101070.25;5588749;31;33911;-67
2022/01/27 11:57:41;;;;;;;24.75;10.90;;;;;;;4.65;69.06;101072.44;5588838;31;33955;-67
2022/01/27 12:01:17;;;;;;;23.60;11.07;;;;;;;4.43;69.84;101074.13;5588898;31;34272;-67
2022/01/27 12:04:25;;;;;;;25.17;11.20;;;;;;;4.48;69.57;101075.47;5588776;31;35125;-66
2022/01/27 12:07:28;;;;;;;22.58;10.63;;;;;;;4.48;69.48;101058.88;5588732;31;33999;-67
2022/01/27 12:11:00;;;;;;;22.33;10.68;;;;;;;4.46;69.67;101051.09;5574994;31;34012;-66
2022/01/27 12:14:03;;;;;;;24.45;10.43;;;;;;;4.58;68.70;101057.25;5588365;31;34003;-67
2022/01/27 12:17:09;;;;;;;20.15;10.18;;;;;;;5.50;66.39;101058.06;5588575;31;34055;-67
2022/01/27 12:20:13;;;;;;;17.77;9.75;;;;;;;6.96;60.85;101052.38;5588457;31;34317;-66
2022/01/27 12:23:16;;;;;;;21.30;10.55;;;;;;;7.41;59.88;101050.25;5588359;31;34735;-67
2022/01/27 12:26:47;;;;;;;22.23;10.50;;;;;;;8.05;57.38;101044.69;5588236;31;34020;-68
2022/01/27 12:29:52;;;;;;;19.83;10.65;;;;;;;7.72;57.04;101032.63;5588094;31;34562;-66
2022/01/27 12:32:56;;;;;;;24.40;10.80;;;;;;;7.85;56.55;101040.31;5588192;31;33902;-67
2022/01/27 12:35:58;;;;;;;17.87;9.85;;;;;;;7.43;57.60;101026.38;5587992;31;34640;-65
2022/01/27 12:39:01;;;;;;;22.17;10.40;;;;;;;7.28;57.74;101012.69;5588206;31;34621;-66
2022/01/27 12:42:07;;;;;;;21.62;10.82;;;;;;;7.34;58.45;101003.44;5588203;31;33952;-66
2022/01/27 12:45:13;;;;;;;23.65;10.85;;;;;;;7.22;58.92;101007.94;5587899;31;34707;-66
2022/01/27 12:48:24;;;;;;;21.73;11.77;;;;;;;7.34;57.79;100998.16;5590050;31;33914;-66
2022/01/27 12:51:27;;;;;;;20.65;11.05;;;;;;;7.85;56.28;100992.75;5590699;31;34025;-66
2022/01/27 12:54:31;;;;;;;27.83;12.52;;;;;;;7.26;57.57;100990.06;5590703;31;34790;-66
2022/01/27 12:57:34;;;;;;;26.95;12.32;;;;;;;7.37;57.89;100980.22;5590622;31;34461;-65
2022/01/27 13:00:45;;;;;;;28.60;13.27;;;;;;;7.10;58.18;100977.34;5591044;31;33964;-66
2022/01/27 13:04:00;;;;;;;24.52;13.30;;;;;;;6.46;60.41;100966.91;5590711;31;34517;-66
2022/01/27 13:07:04;;;;;;;25.25;12.55;;;;;;;6.51;60.59;100959.47;5590571;31;34011;-66
2022/01/27 13:10:12;;;;;;;25.67;13.48;;;;;;;6.27;61.04;100950.97;5590633;31;33999;-65
2022/01/27 13:13:21;;;;;;;25.35;12.55;;;;;;;6.15;61.08;100954.59;5590483;31;34698;-66
2022/01/27 13:16:30;;;;;;;32.83;13.98;;;;;;;6.53;60.00;100940.91;5590337;31;34489;-67
2022/01/27 13:19:40;;;;;;;29.80;13.93;;;;;;;6.45;60.16;100941.53;5590343;31;34044;-66
2022/01/27 13:22:45;;;;;;;29.55;13.82;;;;;;;6.19;61.74;100934.12;5576389;31;34167;-66
2022/01/27 13:25:52;;;;;;;26.98;12.68;;;;;;;6.33;61.35;100937.28;5590681;31;34395;-66
2022/01/27 13:28:56;;;;;;;27.95;13.50;;;;;;;6.35;60.74;100945.03;5589706;31;34566;-66
2022/01/27 13:32:01;;;;;;;33.55;12.98;;;;;;;6.48;60.07;100932.53;5590188;31;33931;-65
2022/01/27 13:35:04;;;;;;;27.52;12.88;;;;;;;6.21;61.16;100924.28;5590449;31;34078;-66
2022/01/27 13:38:21;;;;;;;28.33;13.43;;;;;;;6.01;61.26;100925.91;5589987;31;33990;-66
2022/01/27 13:41:24;;;;;;;32.08;14.75;;;;;;;5.82;62.45;100925.69;5590342;31;33965;-66
2022/01/27 13:44:27;;;;;;;28.27;14.20;;;;;;;5.86;62.59;100916.56;5590536;31;34683;-66
2022/01/27 13:47:33;;;;;;;26.80;13.20;;;;;;;5.72;62.98;100922.13;5590213;31;34440;-66
2022/01/27 13:50:38;;;;;;;28.42;13.50;;;;;;;5.54;63.92;100909.50;5576477;31;33924;-66
2022/01/27 13:53:58;;;;;;;27.33;13.50;;;;;;;5.65;63.50;100898.94;5590109;31;34663;-66
2022/01/27 13:57:12;;;;;;;25.95;13.18;;;;;;;5.59;63.25;100888.91;5576398;31;34109;-65
2022/01/27 14:00:20;;;;;;;30.35;12.98;;;;;;;5.52;63.88;100897.41;5589163;31;34032;-65
2022/01/27 14:03:23;;;;;;;31.65;14.32;;;;;;;5.60;64.11;100893.22;5589968;31;34640;-65
2022/01/27 14:06:26;;;;;;;32.05;14.45;;;;;;;5.60;64.47;100895.84;5589812;31;34076;-65
2022/01/27 14:09:30;;;;;;;29.55;13.62;;;;;;;5.50;65.41;100888.81;5590018;31;34663;-66
2022/01/27 14:13:05;;;;;;;31.87;14.70;;;;;;;5.35;66.27;100875.09;5590014;31;34622;-66
2022/01/27 14:16:08;;;;;;;32.58;13.38;;;;;;;5.36;66.59;100868.03;5589861;31;34212;-66
2022/01/27 14:19:16;;;;;;;31.45;14.18;;;;;;;5.24;66.58;100872.47;5589900;31;34659;-65
2022/01/27 14:22:21;;;;;;;33.80;13.85;;;;;;;5.21;66.94;100870.09;5589569;31;34012;-65
2022/01/27 14:25:45;;;;;;;28.83;13.60;;;;;;;5.10;67.58;100873.56;5589641;31;33954;-65
2022/01/27 14:28:59;;;;;;;38.03;13.68;;;;;;;5.05;68.48;100877.50;5589427;31;34922;-66
2022/01/27 14:32:02;;;;;;;30.42;14.30;;;;;;;4.92;69.70;100871.53;5589052;31;34931;-65
2022/01/27 14:35:08;;;;;;;29.25;13.77;;;;;;;4.93;69.91;100855.66;5589055;31;33927;-66
2022/01/27 14:38:11;;;;;;;28.75;13.77;;;;;;;4.97;70.43;100850.97;5589074;31;34362;-65
2022/01/27 14:41:13;;;;;;;37.45;15.48;;;;;;;4.98;70.85;100855.28;5589819;31;34060;-65
2022/01/27 14:44:17;;;;;;;35.15;15.00;;;;;;;5.07;70.90;100838.78;5589461;31;33936;-66
2022/01/27 14:47:20;;;;;;;36.25;15.35;;;;;;;4.80;71.71;100832.09;5589463;31;33991;-67
2022/01/27 14:50:23;;;;;;;33.55;15.48;;;;;;;4.87;71.91;100832.47;5589249;31;34081;-66
2022/01/27 14:53:26;;;;;;;33.90;15.00;;;;;;;4.76;72.15;100841.19;5589563;31;34235;-67
2022/01/27 14:56:29;;;;;;;31.60;13.90;;;;;;;4.77;72.08;100844.66;5589270;31;34568;-66
2022/01/27 14:59:32;;;;;;;35.65;15.82;;;;;;;4.67;72.55;100843.69;5589264;31;35204;-65
2022/01/27 15:02:35;;;;;;;35.90;15.27;;;;;;;4.56;73.00;100835.78;5589372;31;33901;-66
2022/01/27 15:05:38;;;;;;;37.83;15.68;;;;;;;4.54;73.00;100829.84;5589434;31;33925;-66
2022/01/27 15:08:41;;;;;;;42.17;16.15;;;;;;;4.50;73.63;100838.91;5589077;31;34750;-65